Time;durP1;ratioP1;P1;durP2;ratioP2;P2;SDS_P1;SDS_P2;PMS_P1;PMS_P2;Temp;Humidity;BMP_temperature;BMP_pressure;BME280_temperature;BME280_humidity;BME280_pressure;Samples;Min_cycle;Max_cycle;Signal;HPM_P1;HPM_P2
2022/12/12 00:02:38;;;;;;;27.15;14.48;;;;;;;-144.32;100.00;68061.97;10354371;28;20427;-80
2022/12/12 00:07:38;;;;;;;30.10;14.25;;;;;;;-144.32;100.00;68061.97;10364676;28;20049;-79
2022/12/12 00:12:40;;;;;;;25.02;13.85;;;;;;;-144.32;100.00;68061.97;10394121;28;20039;-79
2022/12/12 00:17:43;;;;;;;25.92;13.45;;;;;;;-144.32;100.00;68061.97;10386932;28;20050;-82
2022/12/12 00:22:44;;;;;;;28.17;13.88;;;;;;;-144.32;100.00;68061.97;10354706;28;20064;-80
2022/12/12 00:27:44;;;;;;;25.38;13.23;;;;;;;-144.32;100.00;68061.97;10360344;28;20554;-80
2022/12/12 00:32:47;;;;;;;32.22;15.90;;;;;;;-144.32;100.00;68061.97;10367153;28;20046;-81
2022/12/12 00:37:48;;;;;;;27.10;14.95;;;;;;;-144.32;100.00;68061.97;10379415;28;20077;-78
2022/12/12 00:42:48;;;;;;;28.13;14.57;;;;;;;-144.32;100.00;68061.97;10352008;28;20057;-79
2022/12/12 00:47:50;;;;;;;30.77;15.15;;;;;;;-144.32;100.00;68061.97;10379486;28;20065;-80
2022/12/12 00:52:50;;;;;;;37.10;15.90;;;;;;;-144.32;100.00;68061.97;10417856;28;20045;-76
2022/12/12 00:57:51;;;;;;;32.55;16.15;;;;;;;-144.32;100.00;68061.97;10416346;28;20030;-78
2022/12/12 01:02:55;;;;;;;36.65;16.60;;;;;;;-144.32;100.00;68061.97;10392341;28;20076;-84
2022/12/12 01:07:55;;;;;;;35.20;17.52;;;;;;;-144.32;100.00;68061.97;10363084;28;20054;-82
2022/12/12 01:12:56;;;;;;;33.28;15.63;;;;;;;-144.32;100.00;68061.97;10379502;28;20050;-83
2022/12/12 01:17:57;;;;;;;34.95;16.80;;;;;;;-144.32;100.00;68061.97;10337929;28;20120;-82
2022/12/12 01:22:57;;;;;;;33.47;16.58;;;;;;;-144.32;100.00;68061.97;10353802;28;20053;-83
2022/12/12 01:27:59;;;;;;;32.03;17.08;;;;;;;-144.32;100.00;68061.97;10351185;28;20429;-83
2022/12/12 01:33:02;;;;;;;33.75;17.38;;;;;;;-144.32;100.00;68061.97;10342686;28;20042;-82
2022/12/12 01:38:03;;;;;;;37.00;16.98;;;;;;;-144.32;100.00;68061.97;10352780;28;20098;-83
2022/12/12 01:43:10;;;;;;;29.02;15.85;;;;;;;-144.32;100.00;68061.97;10355146;28;20026;-82
2022/12/12 01:48:10;;;;;;;36.45;17.52;;;;;;;-144.32;100.00;68061.97;10351140;28;20038;-83
2022/12/12 01:53:13;;;;;;;33.70;16.88;;;;;;;-144.32;100.00;68061.97;10382268;28;20033;-82
2022/12/12 01:58:15;;;;;;;34.03;16.73;;;;;;;-144.32;100.00;68061.97;10344773;28;20451;-82
2022/12/12 02:03:18;;;;;;;36.08;17.30;;;;;;;-144.32;100.00;68061.97;10353709;28;20034;-80
2022/12/12 02:08:21;;;;;;;34.75;18.52;;;;;;;-144.32;100.00;68061.97;10345411;28;20042;-82
2022/12/12 02:13:25;;;;;;;35.60;17.33;;;;;;;-144.32;100.00;68061.97;10340794;28;20502;-81
2022/12/12 02:18:53;;;;;;;34.08;16.85;;;;;;;-144.32;100.00;68061.97;10356327;28;20046;-83
2022/12/12 02:24:08;;;;;;;33.20;16.92;;;;;;;-144.32;100.00;68061.97;10352998;28;20049;-83
2022/12/12 02:29:45;;;;;;;34.30;18.02;;;;;;;-144.32;100.00;68061.97;10354834;28;20046;-82
2022/12/12 02:34:57;;;;;;;36.80;17.58;;;;;;;-144.32;100.00;68061.97;10343886;28;20125;-82
2022/12/12 02:40:19;;;;;;;39.05;17.73;;;;;;;-144.32;100.00;68061.97;10341137;28;20153;-81
2022/12/12 02:45:41;;;;;;;33.80;17.98;;;;;;;-144.32;100.00;68061.97;10352384;28;20232;-84
2022/12/12 02:50:43;;;;;;;36.00;16.73;;;;;;;-144.32;100.00;68061.97;10344831;28;20085;-83
2022/12/12 02:55:44;;;;;;;35.43;17.00;;;;;;;-144.32;100.00;68061.97;10342650;28;20545;-80
2022/12/12 03:01:11;;;;;;;30.63;15.43;;;;;;;-144.32;100.00;68061.97;10339701;28;20128;-80
2022/12/12 03:12:22;;;;;;;36.03;18.05;;;;;;;-144.32;100.00;68061.97;10353649;28;20046;-81
2022/12/12 03:17:33;;;;;;;34.60;16.95;;;;;;;-144.32;100.00;68061.97;10331788;28;20062;-82
2022/12/12 03:22:59;;;;;;;37.40;18.05;;;;;;;-144.32;100.00;68061.97;10343845;28;20043;-81
2022/12/12 03:28:13;;;;;;;33.40;16.77;;;;;;;-144.32;100.00;68061.97;10357000;28;20449;-83
2022/12/12 03:33:33;;;;;;;32.38;15.98;;;;;;;-144.32;100.00;68061.97;10344800;28;20052;-84
2022/12/12 03:38:39;;;;;;;36.65;16.55;;;;;;;-144.32;100.00;68061.97;10353701;28;20412;-81
2022/12/12 03:43:45;;;;;;;33.10;18.90;;;;;;;-144.32;100.00;68061.97;10355676;28;20041;-80
2022/12/12 03:48:58;;;;;;;36.88;17.95;;;;;;;-144.32;100.00;68061.97;10362164;28;20045;-82
2022/12/12 03:54:15;;;;;;;41.30;18.00;;;;;;;-144.32;100.00;68061.97;10359637;28;20046;-84
2022/12/12 03:59:22;;;;;;;32.70;18.02;;;;;;;-144.32;100.00;68061.97;10360112;28;20053;-82
2022/12/12 04:04:36;;;;;;;34.85;19.25;;;;;;;-144.32;100.00;68061.97;10396850;28;20129;-79
2022/12/12 04:15:02;;;;;;;37.15;18.45;;;;;;;-144.32;100.00;68061.97;10422370;23;20038;-79
2022/12/12 04:31:28;;;;;;;34.10;17.60;;;;;;;-144.32;100.00;68061.97;10288785;28;20047;-82
2022/12/12 04:36:31;;;;;;;34.08;17.35;;;;;;;-144.32;100.00;68061.97;10317095;28;20077;-86
2022/12/12 04:41:35;;;;;;;37.80;17.48;;;;;;;-144.32;100.00;68061.97;10317715;28;20043;-81
2022/12/12 04:46:40;;;;;;;34.45;18.20;;;;;;;-144.32;100.00;68061.97;10317078;28;20051;-82
2022/12/12 04:51:46;;;;;;;34.40;17.67;;;;;;;-144.32;100.00;68061.97;10305611;28;20062;-84
2022/12/12 04:56:52;;;;;;;31.95;15.73;;;;;;;-144.32;100.00;68061.97;10346001;28;20061;-83
2022/12/12 05:02:03;;;;;;;35.78;19.20;;;;;;;-144.32;100.00;68061.97;10323928;28;20058;-84
2022/12/12 05:07:19;;;;;;;35.47;17.73;;;;;;;-144.32;100.00;68061.97;10309527;28;20035;-83
2022/12/12 05:12:19;;;;;;;33.30;17.35;;;;;;;-144.32;100.00;68061.97;10314126;28;20050;-84
2022/12/12 05:17:29;;;;;;;30.08;17.27;;;;;;;-144.32;100.00;68061.97;10305616;28;20039;-84
2022/12/12 05:22:31;;;;;;;37.95;17.55;;;;;;;-144.32;100.00;68061.97;10342299;28;20029;-80
2022/12/12 05:27:32;;;;;;;34.38;16.15;;;;;;;-144.32;100.00;68061.97;10346994;28;20091;-84
2022/12/12 05:32:32;;;;;;;37.33;17.17;;;;;;;-144.32;100.00;68061.97;10293979;28;20047;-83
2022/12/12 05:37:33;;;;;;;30.50;15.13;;;;;;;-144.32;100.00;68061.97;10301872;28;20419;-81
2022/12/12 05:42:34;;;;;;;33.63;16.48;;;;;;;-144.32;100.00;68061.97;10316449;28;20390;-81
2022/12/12 05:47:34;;;;;;;31.02;16.10;;;;;;;-144.32;100.00;68061.97;10334855;28;20077;-82
2022/12/12 05:52:35;;;;;;;38.53;16.67;;;;;;;-144.32;100.00;68061.97;10293841;28;20050;-81
2022/12/12 05:57:36;;;;;;;37.17;18.33;;;;;;;-144.32;100.00;68061.97;10296257;28;20074;-82
2022/12/12 06:02:37;;;;;;;37.22;17.27;;;;;;;-144.32;100.00;68061.97;10300228;28;20039;-80
2022/12/12 06:07:39;;;;;;;34.03;17.42;;;;;;;-144.32;100.00;68061.97;10307416;28;20550;-80
2022/12/12 06:12:40;;;;;;;37.33;18.08;;;;;;;-144.32;100.00;68061.97;10281648;28;20074;-80
2022/12/12 06:17:41;;;;;;;40.03;18.33;;;;;;;-144.32;100.00;68061.97;10303427;28;20073;-80
2022/12/12 06:22:42;;;;;;;33.67;16.52;;;;;;;-144.32;100.00;68061.97;10295602;28;20132;-80
2022/12/12 06:27:43;;;;;;;43.63;20.52;;;;;;;-144.32;100.00;68061.97;10301962;28;20070;-80
2022/12/12 06:32:44;;;;;;;38.22;18.08;;;;;;;-144.32;100.00;68061.97;10281326;28;20792;-78
2022/12/12 06:37:50;;;;;;;35.85;18.17;;;;;;;-144.32;100.00;68061.97;10298343;28;20035;-80
2022/12/12 06:42:50;;;;;;;37.90;18.25;;;;;;;-144.32;100.00;68061.97;10293509;28;20046;-74
2022/12/12 06:47:51;;;;;;;42.63;18.50;;;;;;;-144.32;100.00;68061.97;10288483;28;20046;-80
2022/12/12 06:52:51;;;;;;;39.47;16.80;;;;;;;-144.32;100.00;68061.97;10289202;28;20071;-80
2022/12/12 06:57:52;;;;;;;40.30;19.17;;;;;;;-144.32;100.00;68061.97;10296003;28;20063;-79
2022/12/12 07:02:54;;;;;;;38.97;18.30;;;;;;;-144.32;100.00;68061.97;10303760;28;20059;-81
2022/12/12 07:07:57;;;;;;;33.28;15.93;;;;;;;-144.32;100.00;68061.97;10303232;28;20051;-81
2022/12/12 07:12:58;;;;;;;34.65;15.82;;;;;;;-144.32;100.00;68061.97;10334700;28;20038;-80
2022/12/12 07:18:01;;;;;;;30.85;15.55;;;;;;;-144.32;100.00;68061.97;10354764;28;20021;-80
2022/12/12 07:23:03;;;;;;;34.15;16.98;;;;;;;-144.32;100.00;68061.97;10358153;28;20019;-78
2022/12/12 07:28:04;;;;;;;42.53;17.40;;;;;;;-144.32;100.00;68061.97;10353117;28;20088;-78
2022/12/12 07:33:04;;;;;;;39.95;17.83;;;;;;;-144.32;100.00;68061.97;10368085;28;20039;-77
2022/12/12 07:38:05;;;;;;;34.13;17.83;;;;;;;-144.32;100.00;68061.97;10352539;28;20045;-78
2022/12/12 07:43:06;;;;;;;31.73;16.15;;;;;;;-144.32;100.00;68061.97;10337988;28;20196;-80
2022/12/12 07:48:08;;;;;;;33.72;15.90;;;;;;;-144.32;100.00;68061.97;10314722;28;20063;-73
2022/12/12 07:53:12;;;;;;;30.00;14.93;;;;;;;-144.32;100.00;68061.97;10300555;28;20050;-81
2022/12/12 07:58:13;;;;;;;;;;;;;;;-144.32;100.00;68061.97;10311621;28;20049;-80
2022/12/12 08:03:14;;;;;;;26.40;13.38;;;;;;;-144.32;100.00;68061.97;10305595;28;19925;-82
2022/12/12 08:08:16;;;;;;;29.67;13.88;;;;;;;-144.32;100.00;68061.97;10302507;28;20038;-81
2022/12/12 08:13:17;;;;;;;27.83;13.50;;;;;;;-144.32;100.00;68061.97;10295603;28;20057;-80
2022/12/12 08:18:26;;;;;;;28.48;13.57;;;;;;;-144.32;100.00;68061.97;10313451;28;20045;-79
2022/12/12 08:23:27;;;;;;;27.30;12.80;;;;;;;-144.32;100.00;68061.97;10298717;28;20447;-80
2022/12/12 08:28:28;;;;;;;26.90;12.93;;;;;;;-144.32;100.00;68061.97;10313714;28;20490;-78
2022/12/12 08:33:30;;;;;;;29.52;13.65;;;;;;;-144.32;100.00;68061.97;10318296;28;20051;-79
2022/12/12 08:38:34;;;;;;;26.55;13.88;;;;;;;-144.32;100.00;68061.97;10312978;28;20048;-80
2022/12/12 08:43:37;;;;;;;28.40;14.18;;;;;;;-144.32;100.00;68061.97;10312819;28;20043;-81
2022/12/12 08:48:39;;;;;;;25.90;13.82;;;;;;;-144.32;100.00;68061.97;10310293;28;20565;-80
2022/12/12 08:53:42;;;;;;;32.60;14.40;;;;;;;-144.32;100.00;68061.97;10345098;28;20062;-81
2022/12/12 08:58:42;;;;;;;25.70;13.17;;;;;;;-144.32;100.00;68061.97;10303323;28;20043;-80
2022/12/12 09:03:45;;;;;;;29.95;13.82;;;;;;;-144.32;100.00;68061.97;10315663;28;20274;-80
2022/12/12 09:08:46;;;;;;;25.30;13.83;;;;;;;-144.32;100.00;68061.97;10305444;28;20110;-81
2022/12/12 09:13:47;;;;;;;28.27;13.07;;;;;;;-144.32;100.00;68061.97;10305651;28;20161;-80
2022/12/12 09:18:47;;;;;;;27.55;14.63;;;;;;;-144.32;100.00;68061.97;10309120;28;20046;-83
2022/12/12 09:23:49;;;;;;;32.90;16.52;;;;;;;-144.32;100.00;68061.97;10306656;28;20039;-85
2022/12/12 09:28:53;;;;;;;35.15;16.17;;;;;;;-144.32;100.00;68061.97;10304649;28;20055;-85
2022/12/12 09:33:57;;;;;;;29.90;14.85;;;;;;;-144.32;100.00;68061.97;10298773;28;20050;-83
2022/12/12 09:38:58;;;;;;;32.70;14.57;;;;;;;-144.32;100.00;68061.97;10309961;28;20050;-82
2022/12/12 09:44:08;;;;;;;31.05;14.93;;;;;;;-144.32;100.00;68061.97;10305619;28;20404;-82
2022/12/12 09:49:20;;;;;;;24.75;13.95;;;;;;;-144.32;100.00;68061.97;10323460;28;20066;-84
2022/12/12 09:54:24;;;;;;;33.55;17.30;;;;;;;-144.32;100.00;68061.97;10304261;28;20065;-84
2022/12/12 09:59:38;;;;;;;30.02;15.30;;;;;;;-144.32;100.00;68061.97;10292573;28;20066;-83
2022/12/12 10:05:07;;;;;;;29.23;15.90;;;;;;;-144.32;100.00;68061.97;10304722;28;20231;-84
2022/12/12 10:10:26;;;;;;;28.35;16.02;;;;;;;-144.32;100.00;68061.97;10306391;28;20055;-84
2022/12/12 10:15:33;;;;;;;35.17;16.73;;;;;;;-144.32;100.00;68061.97;10307897;28;20069;-84
2022/12/12 10:20:46;;;;;;;36.67;17.55;;;;;;;-144.32;100.00;68061.97;10316796;28;20066;-80
2022/12/12 10:26:03;;;;;;;30.10;16.10;;;;;;;-144.32;100.00;68061.97;10334457;28;20042;-84
2022/12/12 10:31:21;;;;;;;31.50;15.95;;;;;;;-144.32;100.00;68061.97;10326270;28;20050;-83
2022/12/12 10:36:37;;;;;;;37.50;17.20;;;;;;;-144.32;100.00;68061.97;10316963;28;20043;-82
2022/12/12 10:41:58;;;;;;;32.17;14.65;;;;;;;-144.32;100.00;68061.97;10341959;28;20091;-80
2022/12/12 10:47:10;;;;;;;29.55;15.95;;;;;;;-144.32;100.00;68061.97;10362553;28;20030;-81
2022/12/12 10:52:19;;;;;;;28.50;14.68;;;;;;;-144.32;100.00;68061.97;10359678;28;20098;-80
2022/12/12 10:57:32;;;;;;;32.45;15.27;;;;;;;-144.32;100.00;68061.97;10327742;28;20100;-79
2022/12/12 11:02:41;;;;;;;34.35;15.23;;;;;;;-144.32;100.00;68061.97;10300356;28;20118;-80
2022/12/12 11:07:47;;;;;;;25.42;14.38;;;;;;;-144.32;100.00;68061.97;10349179;28;20049;-80
2022/12/12 11:12:57;;;;;;;28.58;14.32;;;;;;;-144.32;100.00;68061.97;10354693;28;20084;-80
2022/12/12 11:17:58;;;;;;;29.10;14.70;;;;;;;-144.32;100.00;68061.97;10327363;28;20107;-79
2022/12/12 11:22:59;;;;;;;26.00;13.77;;;;;;;-144.32;100.00;68061.97;10355589;28;20022;-81
2022/12/12 11:28:03;;;;;;;27.65;12.93;;;;;;;-144.32;100.00;68061.97;10354034;28;20046;-81
2022/12/12 11:33:10;;;;;;;25.52;13.85;;;;;;;-144.32;100.00;68061.97;10332264;28;20546;-82
2022/12/12 11:38:49;;;;;;;23.50;12.27;;;;;;;-144.32;100.00;68061.97;10311680;28;20105;-84
2022/12/12 11:43:50;;;;;;;25.38;13.55;;;;;;;-144.32;100.00;68061.97;10275732;28;20066;-81
2022/12/12 11:48:51;;;;;;;24.95;12.55;;;;;;;-144.32;100.00;68061.97;10298590;28;20042;-81
2022/12/12 11:53:52;;;;;;;22.42;12.98;;;;;;;-144.32;100.00;68061.97;10302771;28;20054;-81
2022/12/12 11:59:01;;;;;;;24.20;12.30;;;;;;;-144.32;100.00;68061.97;10309337;28;20046;-81
2022/12/12 12:04:34;;;;;;;22.77;12.60;;;;;;;-144.32;100.00;68061.97;10299036;28;20158;-83
2022/12/12 12:10:09;;;;;;;21.20;11.13;;;;;;;-144.32;100.00;68061.97;10302325;28;20058;-82
2022/12/12 12:15:29;;;;;;;21.48;11.00;;;;;;;-144.32;100.00;68061.97;10295251;28;20066;-84
2022/12/12 12:21:15;;;;;;;23.02;11.65;;;;;;;-144.32;100.00;68061.97;10307349;28;20039;-76
2022/12/12 12:27:00;;;;;;;23.67;12.37;;;;;;;-144.32;100.00;68061.97;10298505;28;20062;-82
2022/12/12 12:32:10;;;;;;;25.05;13.90;;;;;;;-144.32;100.00;68061.97;10316348;28;20313;-82
2022/12/12 12:37:37;;;;;;;24.85;13.07;;;;;;;-144.32;100.00;68061.97;10311322;28;20050;-82
2022/12/12 12:42:46;;;;;;;22.92;12.82;;;;;;;-144.32;100.00;68061.97;10336336;28;20085;-82
2022/12/12 12:48:02;;;;;;;22.98;12.35;;;;;;;-144.32;100.00;68061.97;10339302;28;20106;-81
2022/12/12 12:53:17;;;;;;;26.33;12.85;;;;;;;-144.32;100.00;68061.97;10323554;28;20042;-78
2022/12/12 12:58:27;;;;;;;25.63;11.57;;;;;;;-144.32;100.00;68061.97;10340139;28;20038;-85
2022/12/12 13:03:53;;;;;;;20.52;11.73;;;;;;;-144.32;100.00;68061.97;10342407;28;20042;-82
2022/12/12 13:09:05;;;;;;;19.67;10.60;;;;;;;-144.32;100.00;68061.97;10305076;28;20058;-82
2022/12/12 13:14:17;;;;;;;24.63;11.93;;;;;;;-144.32;100.00;68061.97;10293966;28;20038;-83
2022/12/12 13:19:34;;;;;;;22.25;11.45;;;;;;;-144.32;100.00;68061.97;10300592;28;20077;-83
2022/12/12 13:25:18;;;;;;;21.42;12.13;;;;;;;-144.32;100.00;68061.97;10310605;28;20049;-81
2022/12/12 13:30:56;;;;;;;22.83;12.32;;;;;;;-144.32;100.00;68061.97;10280526;28;20050;-83
2022/12/12 13:36:19;;;;;;;23.65;12.68;;;;;;;-144.32;100.00;68061.97;10298487;28;20046;-80
2022/12/12 13:41:20;;;;;;;23.92;12.38;;;;;;;-144.32;100.00;68061.97;10312742;28;20046;-82
2022/12/12 13:46:25;;;;;;;25.67;12.85;;;;;;;-144.32;100.00;68061.97;10323907;28;20042;-85
2022/12/12 13:51:30;;;;;;;20.75;10.05;;;;;;;-144.32;100.00;68061.97;10318817;28;20153;-83
2022/12/12 13:56:44;;;;;;;22.25;11.75;;;;;;;-144.32;100.00;68061.97;10343886;28;20040;-84
2022/12/12 14:01:55;;;;;;;22.80;11.63;;;;;;;-144.32;100.00;68061.97;10341521;28;20043;-83
2022/12/12 14:07:24;;;;;;;23.85;11.88;;;;;;;-144.32;100.00;68061.97;10718320;23;20035;-85
2022/12/12 14:12:33;;;;;;;22.90;10.57;;;;;;;-144.32;100.00;68061.97;10332101;28;20054;-89
2022/12/12 14:17:37;;;;;;;21.10;11.05;;;;;;;-144.32;100.00;68061.97;10326136;28;20042;-88
2022/12/12 14:22:43;;;;;;;22.98;12.05;;;;;;;-144.32;100.00;68061.97;10352445;28;20029;-84
2022/12/12 14:27:48;;;;;;;22.63;12.68;;;;;;;-144.32;100.00;68061.97;10324429;28;20054;-85
2022/12/12 14:33:09;;;;;;;21.15;11.85;;;;;;;-144.32;100.00;68061.97;10324710;28;20098;-84
2022/12/12 14:38:39;;;;;;;25.95;11.98;;;;;;;-144.32;100.00;68061.97;10318273;28;20069;-84
2022/12/12 14:43:45;;;;;;;21.60;10.88;;;;;;;-144.32;100.00;68061.97;10323490;28;20077;-85
2022/12/12 14:48:47;;;;;;;20.60;10.65;;;;;;;-144.32;100.00;68061.97;10328277;28;20042;-85
2022/12/12 14:53:54;;;;;;;21.55;10.60;;;;;;;-144.32;100.00;68061.97;10373268;28;20061;-83
2022/12/12 14:58:59;;;;;;;26.67;12.45;;;;;;;-144.32;100.00;68061.97;10356374;28;20082;-85
2022/12/12 15:04:08;;;;;;;22.73;12.68;;;;;;;-144.32;100.00;68061.97;10368003;28;20037;-82
2022/12/12 15:09:25;;;;;;;22.80;11.07;;;;;;;-144.32;100.00;68061.97;10369971;28;20046;-83
2022/12/12 15:14:26;;;;;;;22.17;11.27;;;;;;;-144.32;100.00;68061.97;10371465;28;20055;-82
2022/12/12 15:19:34;;;;;;;19.45;11.45;;;;;;;-144.32;100.00;68061.97;10377586;28;20046;-82
2022/12/12 15:24:38;;;;;;;24.27;11.65;;;;;;;-144.32;100.00;68061.97;10362558;28;20090;-83
2022/12/12 15:29:41;;;;;;;24.48;12.27;;;;;;;-144.32;100.00;68061.97;10360345;28;20101;-82
2022/12/12 15:34:57;;;;;;;25.77;12.13;;;;;;;-144.32;100.00;68061.97;10371957;28;20060;-82
2022/12/12 15:40:18;;;;;;;24.45;12.32;;;;;;;-144.32;100.00;68061.97;10389017;28;20054;-82
2022/12/12 15:45:24;;;;;;;20.15;11.18;;;;;;;-144.32;100.00;68061.97;10388556;28;20050;-85
2022/12/12 15:50:40;;;;;;;21.70;11.73;;;;;;;-144.32;100.00;68061.97;10368730;28;20465;-86
2022/12/12 15:55:58;;;;;;;22.00;13.05;;;;;;;-144.32;100.00;68061.97;10400741;28;20034;-83
2022/12/12 16:01:05;;;;;;;24.52;12.20;;;;;;;-144.32;100.00;68061.97;10371384;28;20058;-82
2022/12/12 16:06:16;;;;;;;23.52;12.30;;;;;;;-144.32;100.00;68061.97;10384269;28;20054;-84
2022/12/12 16:11:36;;;;;;;21.17;12.27;;;;;;;-144.32;100.00;68061.97;10385412;28;20038;-84
2022/12/12 16:16:51;;;;;;;26.95;13.52;;;;;;;-144.32;100.00;68061.97;10376440;28;20522;-82
2022/12/12 16:21:53;;;;;;;25.75;12.13;;;;;;;-144.32;100.00;68061.97;10376322;28;20123;-86
2022/12/12 16:26:59;;;;;;;27.30;13.65;;;;;;;-144.32;100.00;68061.97;10375408;28;20049;-85
2022/12/12 16:32:01;;;;;;;24.98;13.02;;;;;;;-144.32;100.00;68061.97;10375077;28;20073;-85
2022/12/12 16:37:02;;;;;;;23.08;11.95;;;;;;;-144.32;100.00;68061.97;10382794;28;20057;-82
2022/12/12 16:42:14;;;;;;;25.73;13.25;;;;;;;-144.32;100.00;68061.97;10371841;28;20053;-82
2022/12/12 16:47:22;;;;;;;22.42;12.68;;;;;;;-144.32;100.00;68061.97;10372005;28;20663;-81
2022/12/12 16:52:23;;;;;;;26.13;13.13;;;;;;;-144.32;100.00;68061.97;10391711;28;20066;-83
2022/12/12 16:57:25;;;;;;;24.83;12.98;;;;;;;-144.32;100.00;68061.97;10381460;28;20511;-84
2022/12/12 17:02:27;;;;;;;28.53;16.40;;;;;;;-144.32;100.00;68061.97;10392359;28;20057;-83
2022/12/12 17:07:29;;;;;;;26.00;13.82;;;;;;;-144.32;100.00;68061.97;10432794;28;20292;-82
2022/12/12 17:12:29;;;;;;;36.28;16.58;;;;;;;-144.32;100.00;68061.97;10398032;28;20018;-83
2022/12/12 17:17:31;;;;;;;29.20;14.82;;;;;;;-144.32;100.00;68061.97;10414875;28;20065;-82
2022/12/12 17:22:32;;;;;;;31.60;16.02;;;;;;;-144.32;100.00;68061.97;10386970;28;20050;-80
2022/12/12 17:27:35;;;;;;;26.58;14.10;;;;;;;-144.32;100.00;68061.97;10392766;28;20048;-80
2022/12/12 17:32:36;;;;;;;28.23;13.32;;;;;;;-144.32;100.00;68061.97;10422798;28;20045;-80
2022/12/12 17:37:37;;;;;;;29.05;13.63;;;;;;;-144.32;100.00;68061.97;10397720;28;20038;-82
2022/12/12 17:42:40;;;;;;;25.00;12.52;;;;;;;-144.32;100.00;68061.97;10360671;28;20060;-82
2022/12/12 17:47:41;;;;;;;26.08;13.10;;;;;;;-144.32;100.00;68061.97;10365044;28;20525;-82
2022/12/12 17:52:45;;;;;;;26.83;12.73;;;;;;;-144.32;100.00;68061.97;10368944;28;20069;-83
2022/12/12 17:57:46;;;;;;;;;;;;;;;-144.32;100.00;68061.97;10364212;28;20679;-81
2022/12/12 18:02:49;;;;;;;28.42;14.10;;;;;;;-144.32;100.00;68061.97;10362063;28;20394;-82
2022/12/12 18:07:52;;;;;;;27.73;14.38;;;;;;;-144.32;100.00;68061.97;10370896;28;20069;-86
2022/12/12 18:12:53;;;;;;;29.63;13.05;;;;;;;-144.32;100.00;68061.97;10397197;28;20117;-83
2022/12/12 18:17:55;;;;;;;24.48;12.88;;;;;;;-144.32;100.00;68061.97;10372229;28;20048;-84
2022/12/12 18:22:58;;;;;;;30.23;13.23;;;;;;;-144.32;100.00;68061.97;10364908;28;20056;-83
2022/12/12 18:28:00;;;;;;;27.95;13.23;;;;;;;-144.32;100.00;68061.97;10380015;28;20061;-81
2022/12/12 18:33:02;;;;;;;25.23;12.50;;;;;;;-144.32;100.00;68061.97;10391707;28;20030;-88
2022/12/12 18:38:03;;;;;;;21.90;12.50;;;;;;;-144.32;100.00;68061.97;10395246;28;20042;-83
2022/12/12 18:43:06;;;;;;;28.65;13.73;;;;;;;-144.32;100.00;68061.97;10404906;28;20057;-82
2022/12/12 18:48:07;;;;;;;30.45;15.80;;;;;;;-144.32;100.00;68061.97;10421639;28;20033;-82
2022/12/12 18:53:15;;;;;;;31.60;16.10;;;;;;;-144.32;100.00;68061.97;10422753;28;20052;-82
2022/12/12 18:58:15;;;;;;;31.65;15.82;;;;;;;-144.32;100.00;68061.97;10405372;28;20029;-84
2022/12/12 19:03:23;;;;;;;29.30;14.75;;;;;;;-144.32;100.00;68061.97;10391936;28;20042;-82
2022/12/12 19:08:24;;;;;;;27.48;13.82;;;;;;;-144.32;100.00;68061.97;10407431;28;20030;-84
2022/12/12 19:13:28;;;;;;;29.17;12.13;;;;;;;-144.32;100.00;68061.97;10415170;28;20109;-81
2022/12/12 19:18:31;;;;;;;25.87;12.27;;;;;;;-144.32;100.00;68061.97;10414625;28;20050;-83
2022/12/12 19:23:34;;;;;;;25.67;12.50;;;;;;;-144.32;100.00;68061.97;10406741;23;20301;-83
2022/12/12 19:28:41;;;;;;;;;;;;;;;-144.32;100.00;68061.97;10367386;28;20313;-85
2022/12/12 19:33:46;;;;;;;27.42;12.55;;;;;;;-144.32;100.00;68061.97;10322968;28;19930;-84
2022/12/12 19:38:47;;;;;;;32.42;14.35;;;;;;;-144.32;100.00;68061.97;10338653;28;20052;-85
2022/12/12 19:43:50;;;;;;;27.23;13.57;;;;;;;-144.32;100.00;68061.97;10368381;28;20077;-81
2022/12/12 19:48:54;;;;;;;29.52;12.90;;;;;;;-144.32;100.00;68061.97;10363527;28;20046;-83
2022/12/12 19:54:09;;;;;;;31.92;15.05;;;;;;;-144.32;100.00;68061.97;10376418;28;20054;-82
2022/12/12 19:59:13;;;;;;;31.55;13.00;;;;;;;-144.32;100.00;68061.97;10387538;28;20030;-81
2022/12/12 20:04:20;;;;;;;26.23;13.63;;;;;;;-144.32;100.00;68061.97;10376161;28;20035;-81
2022/12/12 20:09:26;;;;;;;27.33;13.68;;;;;;;-144.32;100.00;68061.97;10400974;28;20021;-81
2022/12/12 20:14:32;;;;;;;35.50;16.60;;;;;;;-144.32;100.00;68061.97;10366343;28;20034;-81
2022/12/12 20:19:33;;;;;;;32.22;14.63;;;;;;;-144.32;100.00;68061.97;10398737;28;20021;-81
2022/12/12 20:24:36;;;;;;;33.42;17.13;;;;;;;-144.32;100.00;68061.97;10420793;23;20038;-79
2022/12/12 20:29:41;;;;;;;35.03;17.23;;;;;;;-144.32;100.00;68061.97;10369193;28;20011;-77
2022/12/12 20:34:41;;;;;;;26.25;15.38;;;;;;;-144.32;100.00;68061.97;10357698;28;20026;-83
2022/12/12 20:39:43;;;;;;;30.40;14.68;;;;;;;-144.32;100.00;68061.97;10606755;23;20050;-83
2022/12/12 20:44:45;;;;;;;29.88;14.95;;;;;;;-144.32;100.00;68061.97;10342955;28;20043;-84
2022/12/12 20:49:47;;;;;;;34.25;15.63;;;;;;;-144.32;100.00;68061.97;10339024;28;20042;-83
2022/12/12 20:54:52;;;;;;;32.67;16.98;;;;;;;-144.32;100.00;68061.97;10346486;28;20047;-82
2022/12/12 20:59:53;;;;;;;33.38;16.05;;;;;;;-144.32;100.00;68061.97;10338127;28;20493;-83
2022/12/12 21:04:54;;;;;;;35.38;17.10;;;;;;;-144.32;100.00;68061.97;10340697;28;20052;-82
2022/12/12 21:09:56;;;;;;;32.15;17.45;;;;;;;-144.32;100.00;68061.97;10351679;28;20138;-82
2022/12/12 21:14:58;;;;;;;33.63;15.32;;;;;;;-144.32;100.00;68061.97;10346099;28;20494;-82
2022/12/12 21:19:59;;;;;;;32.30;14.48;;;;;;;-144.32;100.00;68061.97;10329798;28;20047;-81
2022/12/12 21:25:01;;;;;;;32.10;14.90;;;;;;;-144.32;100.00;68061.97;10341047;28;20046;-86
2022/12/12 21:30:04;;;;;;;27.10;14.83;;;;;;;-144.32;100.00;68061.97;10330605;28;20054;-80
2022/12/12 21:35:10;;;;;;;34.23;15.20;;;;;;;-144.32;100.00;68061.97;10350158;28;20392;-80
2022/12/12 21:40:13;;;;;;;34.25;16.30;;;;;;;-144.32;100.00;68061.97;10357281;28;20058;-79
2022/12/12 21:45:17;;;;;;;35.63;16.17;;;;;;;-144.32;100.00;68061.97;10359850;28;20031;-80
2022/12/12 21:50:17;;;;;;;34.80;17.48;;;;;;;-144.32;100.00;68061.97;10358421;28;20545;-81
2022/12/12 21:55:20;;;;;;;36.65;16.80;;;;;;;-144.32;100.00;68061.97;10323767;28;20085;-82
2022/12/12 22:00:20;;;;;;;32.72;16.98;;;;;;;-144.32;100.00;68061.97;10324464;28;20034;-82
2022/12/12 22:05:22;;;;;;;32.88;17.42;;;;;;;-144.32;100.00;68061.97;10321633;28;20571;-83
2022/12/12 22:10:25;;;;;;;35.20;16.95;;;;;;;-144.32;100.00;68061.97;10337833;28;20042;-82
2022/12/12 22:15:26;;;;;;;32.90;16.50;;;;;;;-144.32;100.00;68061.97;10327670;28;20074;-82
2022/12/12 22:20:26;;;;;;;34.13;16.75;;;;;;;-144.32;100.00;68061.97;10339590;28;20034;-82
2022/12/12 22:25:28;;;;;;;38.78;17.13;;;;;;;-144.32;100.00;68061.97;10363295;28;20270;-78
2022/12/12 22:30:29;;;;;;;33.13;17.33;;;;;;;-144.32;100.00;68061.97;10359669;28;20061;-80
2022/12/12 22:35:31;;;;;;;37.85;18.25;;;;;;;-144.32;100.00;68061.97;10327689;28;20057;-83
2022/12/12 22:40:33;;;;;;;39.80;18.52;;;;;;;-144.32;100.00;68061.97;10322982;28;20039;-81
2022/12/12 22:45:36;;;;;;;34.53;16.35;;;;;;;-144.32;100.00;68061.97;10324015;28;20038;-81
2022/12/12 22:50:38;;;;;;;;;;;;;;;-144.32;100.00;68061.97;10340417;28;20037;-79